MMPR/PVR METAR and TAF weather

Enter ICAO airport designator
Station Type Date Time Source
MMPR METAR 2022/01/27 22:44 UTC NOAA

MMPR 272244Z 20009KT 15SM SCT160 BKN210 24/19 A2994 RMK 8/039 CI


Station Type Date Time Source
MMPR Decoded METAR 2022/01/27 22:44 UTC NOAA

Puerto Vallarta / Lic, Mexico (MMPR) 20-41N 105-15W
Jan 27, 2022 - 05:44 PM EST / 2022.01.27 2244 UTC
Wind: from the SSW (200 degrees) at 10 MPH (9 KT):0
Visibility: 15 mile(s):0
Sky conditions: mostly cloudy
Temperature: 75 F (24 C)
Dew Point: 66 F (19 C)
Relative Humidity: 73%
Pressure (altimeter): 29.94 in. Hg (1013 hPa)
ob: MMPR 272244Z 20009KT 15SM SCT160 BKN210 24/19 A2994 RMK 8/039 CI
cycle: 22

Station Type Date Time Source
MMPR TAF 2022/01/27 18:42 UTC NOAA

TAF MMPR 271640Z 2718/2824 20010KT P6SM SCT020 BKN250 TX25/2720Z TN18/2812Z
FM280300 00000KT P6SM BKN015 BKN200
FM281200 00000KT P6SM BKN200
FM282000 23010KT P6SM BKN200

Example: see airport list